Marysville/Beale AFB, California
Current Conditions -  °F | °C
As of 2:43 AM on Friday 24 Oct 2014 (Local Time) from KBAB Reporting Station
Haze Haze  
Wind Chill: 52°   Ceiling: Unl
Heat Index: 52°   Visibility: 6mi
Dew Point: 45°   Wind: 3mph
Humidity: 76%   Direction: 60°ENE
Pressure: 29.98"   Gusts: NA
Location:  39.13°N, 121.45°W
Report Text: KBAB 240943Z AUTO 06003KT 6SM R33/5000FT HZ CLR 11/07 A2998 RMK AO2
Loading
Personal Weather Stations






























Interactive Weather Map
Tropical Storm Tracking
New forecast layout! Learn more

10-Day Weather Forecast

Advertisements
Track Severe Weather on mobile